createdAt,value
2016-06-10T00:00:41.427Z,14.32
2016-06-10T00:01:41.414Z,14.4
2016-06-10T00:02:41.433Z,14.36
2016-06-10T00:03:41.436Z,14.33
2016-06-10T00:04:41.423Z,14.32
2016-06-10T00:05:41.411Z,14.33
2016-06-10T00:06:41.413Z,14.41
2016-06-10T00:07:41.433Z,14.43
2016-06-10T00:08:41.280Z,14.36
2016-06-10T00:09:41.423Z,14.37
2016-06-10T00:10:41.442Z,14.35
2016-06-10T00:11:41.429Z,14.37
2016-06-10T00:12:41.448Z,14.37
2016-06-10T00:13:41.435Z,14.36
2016-06-10T00:14:41.438Z,14.4
2016-06-10T00:15:41.457Z,14.35
2016-06-10T00:16:41.444Z,14.33
2016-06-10T00:17:41.448Z,14.3
2016-06-10T00:18:41.451Z,14.28
2016-06-10T00:19:41.453Z,14.23
2016-06-10T00:20:41.456Z,14.2
2016-06-10T00:21:41.445Z,14.23
2016-06-10T00:22:41.463Z,14.18
2016-06-10T00:23:41.465Z,14.22
2016-06-10T00:24:42.548Z,14.1
2016-06-10T00:25:41.457Z,14.11
2016-06-10T00:26:41.460Z,14.14
2016-06-10T00:27:41.432Z,14.14
2016-06-10T00:28:41.466Z,14.05
2016-06-10T00:29:41.453Z,14.11
2016-06-10T00:30:41.472Z,14.07
2016-06-10T00:31:41.459Z,14.08
2016-06-10T00:32:41.447Z,14.14
2016-06-10T00:33:41.465Z,14.17
2016-06-10T00:34:41.454Z,14.07
2016-06-10T00:35:41.472Z,14.23
2016-06-10T00:36:41.460Z,14.15
2016-06-10T00:37:41.478Z,14.22
2016-06-10T00:38:41.481Z,14.22
2016-06-10T00:39:41.500Z,14.15
2016-06-10T00:40:41.909Z,14.11
2016-06-10T00:41:41.459Z,14.22
2016-06-10T00:42:41.478Z,14.05
2016-06-10T00:43:41.482Z,14.04
2016-06-10T00:44:41.468Z,14.14
2016-06-10T00:45:41.502Z,14.08
2016-06-10T00:46:41.475Z,14.1
2016-06-10T00:47:41.478Z,14.05
2016-06-10T00:48:41.481Z,14.05
2016-06-10T00:49:41.483Z,14
2016-06-10T00:50:41.471Z,14.03
2016-06-10T00:51:41.646Z,13.93
2016-06-10T00:52:41.477Z,13.89
2016-06-10T00:53:41.480Z,13.89
2016-06-10T00:54:41.530Z,13.89
2016-06-10T00:55:41.580Z,13.96
2016-06-10T00:56:41.489Z,13.86
2016-06-10T00:57:41.461Z,13.86
2016-06-10T00:58:41.480Z,13.87
2016-06-10T00:59:41.499Z,13.9
2016-06-10T01:00:41.346Z,13.86
2016-06-10T01:01:41.474Z,13.87
2016-06-10T01:02:41.477Z,13.92
2016-06-10T01:03:41.480Z,13.96
2016-06-10T01:04:41.483Z,14.05
2016-06-10T01:05:41.486Z,14
2016-06-10T01:06:41.489Z,14.11
2016-06-10T01:07:41.523Z,14.08
2016-06-10T01:08:41.495Z,14.11
2016-06-10T01:09:41.701Z,14.17
2016-06-10T01:10:41.846Z,14.14
2016-06-10T01:11:41.489Z,14.26
2016-06-10T01:12:41.508Z,14.23
2016-06-10T01:13:41.511Z,14.33
2016-06-10T01:14:41.514Z,14.17
2016-06-10T01:15:41.501Z,14.25
2016-06-10T01:16:41.504Z,14.32
2016-06-10T01:17:41.523Z,14.36
2016-06-10T01:18:41.542Z,14.36
2016-06-10T01:19:41.529Z,14.43
2016-06-10T01:20:41.549Z,14.36
2016-06-10T01:21:41.519Z,14.36
2016-06-10T01:22:41.491Z,14.41
2016-06-10T01:23:41.525Z,14.35
2016-06-10T01:24:42.139Z,14.44
2016-06-10T01:25:42.063Z,14.37
2016-06-10T01:26:41.504Z,14.33
2016-06-10T01:27:41.381Z,14.37
2016-06-10T01:28:41.541Z,14.35
2016-06-10T01:29:41.528Z,14.22
2016-06-10T01:30:41.532Z,14.26
2016-06-10T01:31:41.549Z,14.15
2016-06-10T01:32:41.553Z,14.2
2016-06-10T01:33:41.525Z,14.1
2016-06-10T01:34:41.528Z,14.14
2016-06-10T01:35:41.516Z,14.1
2016-06-10T01:36:41.520Z,14.08
2016-06-10T01:37:41.537Z,13.97
2016-06-10T01:38:41.525Z,14
2016-06-10T01:39:41.560Z,13.97
2016-06-10T01:40:42.266Z,13.92
2016-06-10T01:41:41.549Z,13.89
2016-06-10T01:42:41.366Z,13.85
2016-06-10T01:43:41.541Z,13.81
2016-06-10T01:44:41.544Z,13.81
2016-06-10T01:45:41.390Z,13.86
2016-06-10T01:46:41.534Z,13.92
2016-06-10T01:47:41.537Z,13.79
2016-06-10T01:48:41.556Z,13.86
2016-06-10T01:49:41.543Z,13.89
2016-06-10T01:50:41.562Z,13.86
2016-06-10T01:51:41.612Z,13.85
2016-06-10T01:52:41.553Z,13.85
2016-06-10T01:53:41.539Z,13.85
2016-06-10T01:54:41.637Z,13.83
2016-06-10T01:55:41.562Z,13.72
2016-06-10T01:56:41.564Z,13.71
2016-06-10T01:57:41.537Z,13.67
2016-06-10T01:58:41.555Z,13.71
2016-06-10T01:59:41.574Z,13.57
2016-06-10T02:00:41.561Z,13.5
2016-06-10T02:01:41.564Z,13.57
2016-06-10T02:02:41.567Z,13.62
2016-06-10T02:03:41.555Z,13.56
2016-06-10T02:04:41.558Z,13.54
2016-06-10T02:05:41.562Z,13.47
2016-06-10T02:06:41.579Z,13.5
2016-06-10T02:07:41.536Z,13.46
2016-06-10T02:08:41.571Z,13.46
2016-06-10T02:09:41.557Z,13.5
2016-06-10T02:10:41.577Z,13.46
2016-06-10T02:11:41.547Z,13.5
2016-06-10T02:12:41.567Z,13.5
2016-06-10T02:13:41.586Z,13.5
2016-06-10T02:14:41.589Z,13.49
2016-06-10T02:15:41.607Z,13.54
2016-06-10T02:16:41.579Z,13.47
2016-06-10T02:17:41.583Z,13.5
2016-06-10T02:18:41.585Z,13.52
2016-06-10T02:19:41.572Z,13.5
2016-06-10T02:20:41.575Z,13.5
2016-06-10T02:21:41.563Z,13.5
2016-06-10T02:22:41.598Z,13.57
2016-06-10T02:23:41.444Z,13.5
2016-06-10T02:24:41.588Z,13.52
2016-06-10T02:25:42.310Z,13.5
2016-06-10T02:26:41.563Z,13.49
2016-06-10T02:27:41.582Z,13.62
2016-06-10T02:28:41.569Z,13.5
2016-06-10T02:29:41.603Z,13.54
2016-06-10T02:30:41.592Z,13.52
2016-06-10T02:31:41.594Z,13.47
2016-06-10T02:32:41.581Z,13.47
2016-06-10T02:33:41.585Z,13.38
2016-06-10T02:34:41.432Z,13.5
2016-06-10T02:35:41.575Z,13.41
2016-06-10T02:36:41.421Z,13.47
2016-06-10T02:37:41.629Z,13.42
2016-06-10T02:38:41.654Z,13.47
2016-06-10T02:39:41.694Z,13.44
2016-06-10T02:40:41.751Z,13.5
2016-06-10T02:41:41.745Z,13.56
2016-06-10T02:42:41.823Z,13.47
2016-06-10T02:43:41.792Z,13.47
2016-06-10T02:44:41.809Z,13.53
2016-06-10T02:45:41.810Z,13.62
2016-06-10T02:46:41.859Z,13.54
2016-06-10T02:47:41.839Z,13.59
2016-06-10T02:48:41.847Z,13.57
2016-06-10T02:49:41.716Z,13.52
2016-06-10T02:50:41.863Z,13.54
2016-06-10T02:51:41.856Z,13.54
2016-06-10T02:52:41.909Z,13.46
2016-06-10T02:53:41.867Z,13.5
2016-06-10T02:54:41.872Z,13.5
2016-06-10T02:55:41.892Z,13.47
2016-06-10T02:56:41.897Z,13.47
2016-06-10T02:57:41.887Z,13.47
2016-06-10T02:58:41.890Z,13.5
2016-06-10T02:59:41.878Z,13.46
2016-06-10T03:00:41.898Z,13.41
2016-06-10T03:01:41.886Z,13.39
2016-06-10T03:02:41.906Z,13.3
2016-06-10T03:03:41.908Z,13.3
2016-06-10T03:04:41.770Z,13.31
2016-06-10T03:05:41.743Z,13.16
2016-06-10T03:06:41.901Z,13.27
2016-06-10T03:07:41.889Z,13.2
2016-06-10T03:08:41.924Z,13.25
2016-06-10T03:09:41.895Z,13.22
2016-06-10T03:10:41.758Z,13.13
2016-06-10T03:11:41.886Z,13.13
2016-06-10T03:12:41.904Z,13.09
2016-06-10T03:13:41.923Z,13.13
2016-06-10T03:14:41.896Z,13.05
2016-06-10T03:15:41.913Z,13.11
2016-06-10T03:16:41.932Z,13.12
2016-06-10T03:17:41.920Z,13.03
2016-06-10T03:18:41.891Z,13.01
2016-06-10T03:19:41.925Z,13.01
2016-06-10T03:20:41.897Z,13.04
2016-06-10T03:21:41.901Z,13.03
2016-06-10T03:22:41.889Z,13
2016-06-10T03:23:41.906Z,12.98
2016-06-10T03:24:41.910Z,13.01
2016-06-10T03:25:42.069Z,13
2016-06-10T03:26:41.901Z,13.01
2016-06-10T03:27:41.904Z,12.98
2016-06-10T03:28:41.891Z,12.98
2016-06-10T03:29:41.925Z,13.03
2016-06-10T03:30:41.914Z,13.04
2016-06-10T03:31:41.916Z,12.95
2016-06-10T03:32:41.903Z,12.97
2016-06-10T03:33:41.907Z,13.01
2016-06-10T03:34:41.909Z,13.03
2016-06-10T03:35:41.912Z,13.05
2016-06-10T03:36:41.932Z,13.03
2016-06-10T03:37:41.903Z,12.98
2016-06-10T03:38:41.906Z,13.01
2016-06-10T03:39:41.925Z,12.98
2016-06-10T03:40:42.350Z,12.91
2016-06-10T03:41:41.915Z,12.79
2016-06-10T03:42:41.904Z,12.83
2016-06-10T03:43:41.937Z,12.8
2016-06-10T03:44:41.925Z,12.91
2016-06-10T03:45:41.897Z,12.86
2016-06-10T03:46:41.930Z,12.8
2016-06-10T03:47:41.934Z,12.82
2016-06-10T03:48:41.922Z,12.9
2016-06-10T03:49:41.909Z,12.9
2016-06-10T03:50:41.928Z,12.91
2016-06-10T03:51:42.103Z,12.91
2016-06-10T03:52:41.918Z,12.87
2016-06-10T03:53:41.937Z,13.04
2016-06-10T03:54:41.908Z,13.05
2016-06-10T03:55:42.005Z,13.12
2016-06-10T03:56:41.931Z,13.16
2016-06-10T03:57:41.762Z,13.35
2016-06-10T03:58:41.921Z,13.52
2016-06-10T03:59:41.923Z,13.52
2016-06-10T04:00:41.927Z,13.65
2016-06-10T04:01:41.930Z,13.62
2016-06-10T04:02:41.932Z,13.78
2016-06-10T04:03:41.936Z,13.83
2016-06-10T04:04:41.955Z,13.9
2016-06-10T04:05:41.927Z,14
2016-06-10T04:06:41.899Z,14.03
2016-06-10T04:07:41.948Z,14.08
2016-06-10T04:08:41.936Z,14.18
2016-06-10T04:09:41.954Z,14.22
2016-06-10T04:10:42.176Z,14.36
2016-06-10T04:11:42.210Z,14.44
2016-06-10T04:12:41.949Z,14.63
2016-06-10T04:13:41.952Z,14.82
2016-06-10T04:14:41.954Z,14.84
2016-06-10T04:15:41.942Z,14.92
2016-06-10T04:16:41.975Z,14.99
2016-06-10T04:17:41.792Z,15.02
2016-06-10T04:18:41.951Z,15.21
2016-06-10T04:19:41.954Z,15.29
2016-06-10T04:20:41.957Z,15.37
2016-06-10T04:21:41.977Z,15.43
2016-06-10T04:22:41.948Z,15.43
2016-06-10T04:23:41.967Z,15.46
2016-06-10T04:24:41.954Z,15.43
2016-06-10T04:25:42.395Z,15.31
2016-06-10T04:26:41.961Z,15.25
2016-06-10T04:27:41.979Z,15.35
2016-06-10T04:28:41.967Z,15.31
2016-06-10T04:29:41.954Z,15.37
2016-06-10T04:30:42.004Z,15.55
2016-06-10T04:31:41.991Z,15.61
2016-06-10T04:32:41.979Z,15.68
2016-06-10T04:33:41.997Z,15.73
2016-06-10T04:34:41.985Z,15.8
2016-06-10T04:35:41.972Z,15.95
2016-06-10T04:36:42.006Z,16.05
2016-06-10T04:37:41.978Z,16.02
2016-06-10T04:38:41.997Z,16.02
2016-06-10T04:39:42.000Z,16.09
2016-06-10T04:40:42.253Z,16.01
2016-06-10T04:41:42.772Z,16.08
2016-06-10T04:42:42.009Z,16.04
2016-06-10T04:43:42.028Z,16.15
2016-06-10T04:44:42.078Z,16.28
2016-06-10T04:45:42.065Z,16.38
2016-06-10T04:46:42.037Z,16.47
2016-06-10T04:47:42.040Z,16.58
2016-06-10T04:48:42.043Z,16.65
2016-06-10T04:49:42.046Z,16.56
2016-06-10T04:50:42.018Z,16.6
2016-06-10T04:51:42.224Z,16.5
2016-06-10T04:52:42.056Z,16.47
2016-06-10T04:53:42.043Z,16.31
2016-06-10T04:54:42.047Z,16.21
2016-06-10T04:55:43.142Z,16.13
2016-06-10T04:56:42.334Z,16.09
2016-06-10T04:57:42.056Z,16.04
2016-06-10T04:58:42.074Z,16.04
2016-06-10T04:59:42.108Z,16.23
2016-06-10T05:00:42.065Z,16.32
2016-06-10T05:01:42.083Z,16.35
2016-06-10T05:02:42.087Z,16.35
2016-06-10T05:03:42.214Z,16.32
2016-06-10T05:04:42.077Z,16.23
2016-06-10T05:05:42.095Z,16.29
2016-06-10T05:06:42.099Z,16.2
2016-06-10T05:07:42.086Z,16.23
2016-06-10T05:08:42.120Z,16.17
2016-06-10T05:09:42.108Z,16.08
2016-06-10T05:10:41.799Z,16.05
2016-06-10T05:11:42.832Z,16
2016-06-10T05:12:42.117Z,15.84
2016-06-10T05:13:42.120Z,15.83
2016-06-10T05:14:42.108Z,15.76
2016-06-10T05:15:42.126Z,15.61
2016-06-10T05:16:42.145Z,15.86
2016-06-10T05:17:42.132Z,16.08
2016-06-10T05:18:42.151Z,16.09
2016-06-10T05:19:42.139Z,16.24
2016-06-10T05:20:42.127Z,16.28
2016-06-10T05:21:42.129Z,16.16
2016-06-10T05:22:42.133Z,16.24
2016-06-10T05:23:42.151Z,16.2
2016-06-10T05:24:42.170Z,16.15
2016-06-10T05:25:42.157Z,16.16
2016-06-10T05:26:42.004Z,16.17
2016-06-10T05:27:42.163Z,16.38
2016-06-10T05:28:42.197Z,16.65
2016-06-10T05:29:42.169Z,16.78
2016-06-10T05:30:42.172Z,17.16
2016-06-10T05:31:42.175Z,17.59
2016-06-10T05:32:42.163Z,18.03
2016-06-10T05:33:42.166Z,18.56
2016-06-10T05:34:42.201Z,18.84
2016-06-10T05:35:42.173Z,19.24
2016-06-10T05:36:42.207Z,19.58
2016-06-10T05:37:42.210Z,19.91
2016-06-10T05:38:42.228Z,20.14
2016-06-10T05:39:42.075Z,20.39
2016-06-10T05:40:42.063Z,20.5
2016-06-10T05:41:42.862Z,20.7
2016-06-10T05:42:42.225Z,20.82
2016-06-10T05:43:42.229Z,21.02
2016-06-10T05:44:43.496Z,21.24
2016-06-10T05:45:42.234Z,21.52
2016-06-10T05:46:42.221Z,21.51
2016-06-10T05:47:42.255Z,21.58
2016-06-10T05:48:42.244Z,21.62
2016-06-10T05:49:42.294Z,21.18
2016-06-10T05:50:42.297Z,20.7
2016-06-10T05:51:42.330Z,20.25
2016-06-10T05:52:42.131Z,19.84
2016-06-10T05:53:42.321Z,19.71
2016-06-10T05:54:42.277Z,19.55
2016-06-10T05:55:42.843Z,19.41
2016-06-10T05:56:42.330Z,19.47
2016-06-10T05:57:42.318Z,19.62
2016-06-10T05:58:42.322Z,19.94
2016-06-10T05:59:42.325Z,20.29
2016-06-10T06:00:42.374Z,20.41
2016-06-10T06:01:42.330Z,20.59
2016-06-10T06:02:42.192Z,20.74
2016-06-10T06:03:42.368Z,21.18
2016-06-10T06:04:42.387Z,21.52
2016-06-10T06:05:42.404Z,21.89
2016-06-10T06:06:42.377Z,22.22
2016-06-10T06:07:42.364Z,22.62
2016-06-10T06:08:42.383Z,22.81
2016-06-10T06:09:42.370Z,23.08
2016-06-10T06:10:42.389Z,23.15
2016-06-10T06:11:42.626Z,23.27
2016-06-10T06:12:42.411Z,23.71
2016-06-10T06:13:42.274Z,23.88
2016-06-10T06:14:42.463Z,23.92
2016-06-10T06:15:42.452Z,24.01
2016-06-10T06:16:42.299Z,24.16
2016-06-10T06:17:42.473Z,24.26
2016-06-10T06:18:42.492Z,24.29
2016-06-10T06:19:42.511Z,24.33
2016-06-10T06:20:42.498Z,24.02
2016-06-10T06:21:42.501Z,24.16
2016-06-10T06:22:42.504Z,24.3
2016-06-10T06:23:42.351Z,24.16
2016-06-10T06:24:42.526Z,24.4
2016-06-10T06:25:42.529Z,24.6
2016-06-10T06:26:42.563Z,24.69
2016-06-10T06:27:42.551Z,24.84
2016-06-10T06:28:42.429Z,24.85
2016-06-10T06:29:42.572Z,25.07
2016-06-10T06:30:42.575Z,25.22
2016-06-10T06:31:42.579Z,25.33
2016-06-10T06:32:42.598Z,25.62
2016-06-10T06:33:42.632Z,25.87
2016-06-10T06:34:42.635Z,25.88
2016-06-10T06:35:42.622Z,25.84
2016-06-10T06:36:42.672Z,25.66
2016-06-10T06:37:42.675Z,25.68
2016-06-10T06:38:42.662Z,25.46
2016-06-10T06:39:42.697Z,25.6
2016-06-10T06:40:42.685Z,25.63
2016-06-10T06:41:42.953Z,25.8
2016-06-10T06:42:42.706Z,25.91
2016-06-10T06:43:42.725Z,26.22
2016-06-10T06:44:42.713Z,26.47
2016-06-10T06:45:42.731Z,26.78
2016-06-10T06:46:42.734Z,26.96
2016-06-10T06:47:42.737Z,26.84
2016-06-10T06:48:42.756Z,26.84
2016-06-10T06:49:42.775Z,26.88
2016-06-10T06:50:42.778Z,26.88
2016-06-10T06:51:42.922Z,26.97
2016-06-10T06:52:42.784Z,26.93
2016-06-10T06:53:42.787Z,26.99
2016-06-10T06:54:42.821Z,26.93
2016-06-10T06:55:42.808Z,26.9
2016-06-10T06:56:42.672Z,26.74
2016-06-10T06:57:42.862Z,26.31
2016-06-10T06:58:42.849Z,26.09
2016-06-10T06:59:42.851Z,26.03
2016-06-10T07:00:42.871Z,26.07
2016-06-10T07:01:42.858Z,25.95
2016-06-10T07:02:42.877Z,25.93
2016-06-10T07:03:42.911Z,26.06
2016-06-10T07:04:42.900Z,26.4
2016-06-10T07:05:42.917Z,26.75
2016-06-10T07:06:42.905Z,27.03
2016-06-10T07:07:42.940Z,27.03
2016-06-10T07:08:42.943Z,27.1
2016-06-10T07:09:42.946Z,27.25
2016-06-10T07:10:42.964Z,27.2
2016-06-10T07:11:42.952Z,27.27
2016-06-10T07:12:43.002Z,27.11
2016-06-10T07:13:42.989Z,27.11
2016-06-10T07:14:43.008Z,27.17
2016-06-10T07:15:43.026Z,27.12
2016-06-10T07:16:43.014Z,27.35
2016-06-10T07:17:43.017Z,27.44
2016-06-10T07:18:43.067Z,27.49
2016-06-10T07:19:43.070Z,27.51
2016-06-10T07:20:43.074Z,27.52
2016-06-10T07:21:43.091Z,27.47
2016-06-10T07:22:43.094Z,27.35
2016-06-10T07:23:43.097Z,27.27
2016-06-10T07:24:43.383Z,27.59
2016-06-10T07:25:43.120Z,27.59
2016-06-10T07:26:43.139Z,27.67
2016-06-10T07:27:43.142Z,27.54
2016-06-10T07:28:43.129Z,27.67
2016-06-10T07:29:43.194Z,27.54
2016-06-10T07:30:43.167Z,27.47
2016-06-10T07:31:43.185Z,27.48
2016-06-10T07:32:43.188Z,27.6
2016-06-10T07:33:43.207Z,27.9
2016-06-10T07:34:43.225Z,27.86
2016-06-10T07:35:43.244Z,27.82
2016-06-10T07:36:43.247Z,27.68
2016-06-10T07:37:43.266Z,27.64
2016-06-10T07:38:43.269Z,27.63
2016-06-10T07:39:43.725Z,27.51
2016-06-10T07:40:43.291Z,27.15
2016-06-10T07:41:43.294Z,26.95
2016-06-10T07:42:43.297Z,27.03
2016-06-10T07:43:43.004Z,27.05
2016-06-10T07:44:43.350Z,27.1
2016-06-10T07:45:43.322Z,26.96
2016-06-10T07:46:43.340Z,26.8
2016-06-10T07:47:43.374Z,26.56
2016-06-10T07:48:43.378Z,26.51
2016-06-10T07:49:43.365Z,26.44
2016-06-10T07:50:43.384Z,26.47
2016-06-10T07:51:43.558Z,26.48
2016-06-10T07:52:43.405Z,26.77
2016-06-10T07:53:43.425Z,26.93
2016-06-10T07:54:43.443Z,26.92
2016-06-10T07:55:43.446Z,26.97
2016-06-10T07:56:43.746Z,26.99
2016-06-10T07:57:43.469Z,27.07
2016-06-10T07:58:43.471Z,27.36
2016-06-10T07:59:43.490Z,27.4
2016-06-10T08:00:43.525Z,27.27
2016-06-10T08:01:43.512Z,27.44
2016-06-10T08:02:43.514Z,27.59
2016-06-10T08:03:43.518Z,27.82
2016-06-10T08:04:43.521Z,27.73
2016-06-10T08:05:43.634Z,27.7
2016-06-10T08:06:43.558Z,27.6
2016-06-10T08:07:43.577Z,27.59
2016-06-10T08:08:43.564Z,27.65
2016-06-10T08:09:43.614Z,27.39
2016-06-10T08:10:43.586Z,27.27
2016-06-10T08:11:43.589Z,27.2
2016-06-10T08:12:43.624Z,27.33
2016-06-10T08:13:43.612Z,27.65
2016-06-10T08:14:43.629Z,28.07
2016-06-10T08:15:43.649Z,28.41
2016-06-10T08:16:43.683Z,28.48
2016-06-10T08:17:43.685Z,28.63
2016-06-10T08:18:43.674Z,28.72
2016-06-10T08:19:43.677Z,29.01
2016-06-10T08:20:43.742Z,29.13
2016-06-10T08:21:43.698Z,29.24
2016-06-10T08:22:43.732Z,29.08
2016-06-10T08:23:43.751Z,28.98
2016-06-10T08:24:44.317Z,28.82
2016-06-10T08:25:43.601Z,28.51
2016-06-10T08:26:43.760Z,28.22
2016-06-10T08:27:43.763Z,28.07
2016-06-10T08:28:43.766Z,28.07
2016-06-10T08:29:43.785Z,27.98
2016-06-10T08:30:43.835Z,27.89
2016-06-10T08:31:43.854Z,27.64
2016-06-10T08:32:43.825Z,27.35
2016-06-10T08:33:43.844Z,27.08
2016-06-10T08:34:43.847Z,26.96
2016-06-10T08:35:43.866Z,26.99
2016-06-10T08:36:43.900Z,26.99
2016-06-10T08:37:43.888Z,26.75
2016-06-10T08:38:43.891Z,26.47
2016-06-10T08:39:43.909Z,26.55
2016-06-10T08:40:43.912Z,26.74
2016-06-10T08:41:44.682Z,27.05
2016-06-10T08:42:43.793Z,27.14
2016-06-10T08:43:43.953Z,27.21
2016-06-10T08:44:43.971Z,27.6
2016-06-10T08:45:43.959Z,27.9
2016-06-10T08:46:43.978Z,28.04
2016-06-10T08:47:43.997Z,27.89
2016-06-10T08:48:44.000Z,27.86
2016-06-10T08:49:44.003Z,28.04
2016-06-10T08:50:44.006Z,28.12
2016-06-10T08:51:44.025Z,28.07
2016-06-10T08:52:44.043Z,28.05
2016-06-10T08:53:43.906Z,27.92
2016-06-10T08:54:43.910Z,27.51
2016-06-10T08:55:44.053Z,27
2016-06-10T08:56:44.727Z,26.51
2016-06-10T08:57:43.965Z,26.1
2016-06-10T08:58:44.109Z,25.53
2016-06-10T08:59:44.143Z,24.85
2016-06-10T09:00:44.115Z,24.32
2016-06-10T09:01:44.118Z,23.93
2016-06-10T09:02:44.137Z,23.54
2016-06-10T09:03:44.187Z,23.2
2016-06-10T09:04:44.158Z,22.88
2016-06-10T09:05:44.162Z,22.7
2016-06-10T09:06:44.181Z,22.57
2016-06-10T09:07:44.183Z,22.39
2016-06-10T09:08:44.217Z,22.22
2016-06-10T09:09:44.189Z,22.08
2016-06-10T09:10:44.223Z,22.07
2016-06-10T09:11:44.789Z,21.92
2016-06-10T09:12:44.245Z,21.99
2016-06-10T09:13:44.233Z,21.89
2016-06-10T09:14:44.252Z,21.98
2016-06-10T09:15:44.254Z,22
2016-06-10T09:16:44.258Z,21.98
2016-06-10T09:17:44.276Z,22
2016-06-10T09:18:44.279Z,22.08
2016-06-10T09:19:44.126Z,22.2
2016-06-10T09:20:44.270Z,22.25
2016-06-10T09:21:44.163Z,22.29
2016-06-10T09:22:44.323Z,22.3
2016-06-10T09:23:44.295Z,22.45
2016-06-10T09:24:44.314Z,22.57
2016-06-10T09:25:44.333Z,22.5
2016-06-10T09:26:44.695Z,22.55
2016-06-10T09:27:44.370Z,22.62
2016-06-10T09:28:44.356Z,22.7
2016-06-10T09:29:44.360Z,22.66
2016-06-10T09:30:44.207Z,22.87
2016-06-10T09:31:44.366Z,22.91
2016-06-10T09:32:44.230Z,23.02
2016-06-10T09:33:44.357Z,22.94
2016-06-10T09:34:44.391Z,22.84
2016-06-10T09:35:44.394Z,22.76
2016-06-10T09:36:44.413Z,22.65
2016-06-10T09:37:44.259Z,22.63
2016-06-10T09:38:44.403Z,22.63
2016-06-10T09:39:44.423Z,22.51
2016-06-10T09:40:44.410Z,22.54
2016-06-10T09:41:44.429Z,22.59
2016-06-10T09:42:44.338Z,22.57
2016-06-10T09:43:44.419Z,22.6
2016-06-10T09:44:44.469Z,22.66
2016-06-10T09:45:44.425Z,22.76
2016-06-10T09:46:44.459Z,22.8
2016-06-10T09:47:44.462Z,22.78
2016-06-10T09:48:44.326Z,22.78
2016-06-10T09:49:44.485Z,22.9
2016-06-10T09:50:44.487Z,23.03
2016-06-10T09:51:44.616Z,23.15
2016-06-10T09:52:44.478Z,23.31
2016-06-10T09:53:44.544Z,23.27
2016-06-10T09:54:44.500Z,23.24
2016-06-10T09:55:44.534Z,23.25
2016-06-10T09:56:44.521Z,23.39
2016-06-10T09:57:44.962Z,23.44
2016-06-10T09:58:44.527Z,23.48
2016-06-10T09:59:44.546Z,23.37
2016-06-10T10:00:44.533Z,23.13
2016-06-10T10:01:44.568Z,23.08
2016-06-10T10:02:44.586Z,22.99
2016-06-10T10:03:44.559Z,22.94
2016-06-10T10:04:44.421Z,22.87
2016-06-10T10:05:44.596Z,22.84
2016-06-10T10:06:44.427Z,22.8
2016-06-10T10:07:44.587Z,22.68
2016-06-10T10:08:44.605Z,22.53
2016-06-10T10:09:44.593Z,22.59
2016-06-10T10:10:44.611Z,22.59
2016-06-10T10:11:45.599Z,22.57
2016-06-10T10:12:44.617Z,22.76
2016-06-10T10:13:44.636Z,22.83
2016-06-10T10:14:44.623Z,22.99
2016-06-10T10:15:44.627Z,23.18
2016-06-10T10:16:44.489Z,23.32
2016-06-10T10:17:44.679Z,23.44
2016-06-10T10:18:44.651Z,23.43
2016-06-10T10:19:44.639Z,23.4
2016-06-10T10:20:44.674Z,23.36
2016-06-10T10:21:44.535Z,23.43
2016-06-10T10:22:44.680Z,23.41
2016-06-10T10:23:44.698Z,23.5
2016-06-10T10:24:44.686Z,23.65
2016-06-10T10:25:44.704Z,23.78
2016-06-10T10:26:44.707Z,23.96
2016-06-10T10:27:45.038Z,24.03
2016-06-10T10:28:44.573Z,24.11
2016-06-10T10:29:44.576Z,24.24
2016-06-10T10:30:44.719Z,24.32
2016-06-10T10:31:44.769Z,24.33
2016-06-10T10:32:44.725Z,24.39
2016-06-10T10:33:44.745Z,24.51
2016-06-10T10:34:44.732Z,24.66
2016-06-10T10:35:44.751Z,24.58
2016-06-10T10:36:44.629Z,24.51
2016-06-10T10:37:44.616Z,24.26
2016-06-10T10:38:44.775Z,24.06
2016-06-10T10:39:44.622Z,23.84
2016-06-10T10:40:44.829Z,23.76
2016-06-10T10:41:44.801Z,23.74
2016-06-10T10:42:44.851Z,23.78
2016-06-10T10:43:44.822Z,23.91
2016-06-10T10:44:44.857Z,23.95
2016-06-10T10:45:44.829Z,23.92
2016-06-10T10:46:44.878Z,23.78
2016-06-10T10:47:44.584Z,23.68
2016-06-10T10:48:44.837Z,23.69
2016-06-10T10:49:44.716Z,23.63
2016-06-10T10:50:44.844Z,23.55
2016-06-10T10:51:44.925Z,23.55
2016-06-10T10:52:44.865Z,23.44
2016-06-10T10:53:44.853Z,23.34
2016-06-10T10:54:44.731Z,23.28
2016-06-10T10:55:44.860Z,23.27
2016-06-10T10:56:44.878Z,23.27
2016-06-10T10:57:44.616Z,23.34
2016-06-10T10:58:44.931Z,23.36
2016-06-10T10:59:44.918Z,23.37
2016-06-10T11:00:44.921Z,23.44
2016-06-10T11:01:44.908Z,23.28
2016-06-10T11:02:44.646Z,23.18
2016-06-10T11:03:44.931Z,23.17
2016-06-10T11:04:44.965Z,23.09
2016-06-10T11:05:44.968Z,23
2016-06-10T11:06:44.955Z,23.02
2016-06-10T11:07:44.943Z,23.06
2016-06-10T11:08:44.992Z,23.17
2016-06-10T11:09:44.995Z,23.24
2016-06-10T11:10:44.968Z,23.4
2016-06-10T11:11:45.001Z,23.46
2016-06-10T11:12:45.271Z,23.41
2016-06-10T11:13:45.039Z,23.58
2016-06-10T11:14:45.010Z,23.61
2016-06-10T11:15:45.014Z,23.68
2016-06-10T11:16:45.033Z,23.66
2016-06-10T11:17:45.036Z,23.62
2016-06-10T11:18:45.023Z,23.59
2016-06-10T11:19:45.026Z,23.54
2016-06-10T11:20:45.093Z,23.4
2016-06-10T11:21:45.049Z,23.63
2016-06-10T11:22:45.082Z,23.68
2016-06-10T11:23:45.071Z,23.63
2016-06-10T11:24:45.088Z,23.74
2016-06-10T11:25:45.092Z,23.77
2016-06-10T11:26:45.095Z,23.86
2016-06-10T11:27:45.301Z,24.01
2016-06-10T11:28:45.101Z,24.06
2016-06-10T11:29:45.103Z,24.2
2016-06-10T11:30:45.092Z,24.21
2016-06-10T11:31:45.110Z,24.11
2016-06-10T11:32:45.098Z,24.13
2016-06-10T11:33:45.132Z,24.29
2016-06-10T11:34:45.135Z,24.28
2016-06-10T11:35:45.138Z,24.3
2016-06-10T11:36:45.157Z,24.24
2016-06-10T11:37:45.160Z,23.93
2016-06-10T11:38:45.179Z,23.69
2016-06-10T11:39:45.182Z,23.71
2016-06-10T11:40:45.169Z,23.65
2016-06-10T11:41:45.172Z,23.62
2016-06-10T11:42:45.191Z,23.55
2016-06-10T11:43:45.037Z,23.59
2016-06-10T11:44:45.236Z,23.66
2016-06-10T11:45:45.293Z,23.77
2016-06-10T11:46:45.352Z,23.78
2016-06-10T11:47:45.253Z,23.99
2016-06-10T11:48:45.441Z,24.06
2016-06-10T11:49:45.444Z,24.05
2016-06-10T11:50:45.461Z,24.01
2016-06-10T11:51:45.479Z,23.98
2016-06-10T11:52:45.511Z,23.98
2016-06-10T11:53:45.540Z,24.02
2016-06-10T11:54:45.548Z,23.96
2016-06-10T11:55:45.556Z,23.95
2016-06-10T11:56:45.393Z,24.14
2016-06-10T11:57:46.136Z,24.32
2016-06-10T11:58:45.596Z,24.29
2016-06-10T11:59:45.600Z,24.17
2016-06-10T12:00:45.605Z,24.18
2016-06-10T12:01:45.626Z,24.16
2016-06-10T12:02:45.616Z,24.23
2016-06-10T12:03:45.651Z,24.02
2016-06-10T12:04:45.498Z,23.93
2016-06-10T12:05:45.642Z,23.92
2016-06-10T12:06:45.677Z,23.93
2016-06-10T12:07:45.681Z,23.88
2016-06-10T12:08:45.637Z,23.77
2016-06-10T12:09:45.687Z,23.78
2016-06-10T12:10:45.675Z,23.8
2016-06-10T12:11:45.679Z,23.66
2016-06-10T12:12:46.213Z,23.77
2016-06-10T12:13:46.545Z,23.86
2016-06-10T12:14:45.735Z,23.81
2016-06-10T12:15:45.708Z,23.74
2016-06-10T12:16:45.553Z,23.76
2016-06-10T12:17:45.573Z,23.92
2016-06-10T12:18:45.732Z,23.95
2016-06-10T12:19:45.720Z,23.99
2016-06-10T12:20:45.738Z,24.01
2016-06-10T12:21:45.741Z,23.99
2016-06-10T12:22:45.744Z,24.01
2016-06-10T12:23:45.733Z,24.01
2016-06-10T12:24:45.782Z,24.24
2016-06-10T12:25:45.769Z,24.23
2016-06-10T12:26:45.772Z,24.36
2016-06-10T12:27:47.151Z,24.32
2016-06-10T12:28:45.809Z,24.28
2016-06-10T12:29:45.797Z,24.53
2016-06-10T12:30:45.816Z,24.6
2016-06-10T12:31:45.677Z,24.68
2016-06-10T12:32:45.821Z,24.6
2016-06-10T12:33:45.825Z,24.6
2016-06-10T12:34:45.828Z,24.57
2016-06-10T12:35:45.675Z,24.65
2016-06-10T12:36:45.850Z,24.76
2016-06-10T12:37:45.837Z,24.84
2016-06-10T12:38:45.904Z,24.66
2016-06-10T12:39:45.843Z,24.57
2016-06-10T12:40:45.705Z,24.43
2016-06-10T12:41:45.912Z,24.3
2016-06-10T12:42:46.150Z,24.24
2016-06-10T12:43:45.747Z,24.23
2016-06-10T12:44:45.890Z,24.17
2016-06-10T12:45:45.737Z,24.14
2016-06-10T12:46:45.912Z,24.28
2016-06-10T12:47:45.743Z,24.23
2016-06-10T12:48:45.918Z,24.23
2016-06-10T12:49:45.952Z,24.21
2016-06-10T12:50:45.941Z,24.13
2016-06-10T12:51:45.864Z,24.11
2016-06-10T12:52:45.978Z,24.03
2016-06-10T12:53:45.808Z,23.99
2016-06-10T12:54:45.983Z,23.99
2016-06-10T12:55:45.970Z,24.08
2016-06-10T12:56:46.005Z,24.11